Guide — WDE7328 — position and weather

sailwx.info

Track history (hours):
 
Tides and Currents Weather Stations Pressure Air Temp Water Temp Dewpoint Dewpoint Depression Visibility Wind Speed Wind Dir Waves Ship Positions

Guide

Owner: CROWLEY MARINE SERVICES INC, SEATTLE, WA. More information available from US FCC via Universal Licensing System and Coast Guard Vessel Documentation Center.

Last reported at 2015-Apr-19 13:33 UTC. Time now 2015-Apr-19 14:04 UTC.
Position N 47°36' W 122°21'.

Length 34 m; draft 5.1 m.

Type: Tug. MMSI: 366759530.

Date/timePositionNaut miles runAvg speedWind from/ knotsBaromVisibWave heightAir tempDewpointWater temp
2015-Apr-19 13:33N 47°36' W 122°21'1 1.2
2015-Apr-19 12:33N 47°36' W 122°23'3 2.5
2015-Apr-19 11:33N 47°35' W 122°26'8 8.1
2015-Apr-19 10:33N 47°27' W 122°23'7 7.3
2015-Apr-19 09:33N 47°20' W 122°26'4 4.4
2015-Apr-19 08:33N 47°15' W 122°26'0 0.0
2015-Apr-19 06:33N 47°15' W 122°26'0 0.0
2015-Apr-19 05:33N 47°15' W 122°26'0 0.0
2015-Apr-19 03:32N 47°15' W 122°26'0 0.0
2015-Apr-19 02:33N 47°15' W 122°26'0 0.0
2015-Apr-19 01:33N 47°15' W 122°26'0 0.0
2015-Apr-19 00:33N 47°15' W 122°26'2 1.6
2015-Apr-18 23:33N 47°17' W 122°25'1 0.6
2015-Apr-18 22:33N 47°17' W 122°26'1 0.7
2015-Apr-18 20:31N 47°16' W 122°24'1 0.7
2015-Apr-18 19:33N 47°16' W 122°23'3 2.7
2015-Apr-18 18:33N 47°17' W 122°26'2 2.0
2015-Apr-18 17:31N 47°15' W 122°26'0 0.0
2015-Apr-18 16:33N 47°15' W 122°26'0 0.0
2015-Apr-18 15:33N 47°15' W 122°26'0 0.0
2015-Apr-18 14:33N 47°15' W 122°26'0 0.0
2015-Apr-18 13:30N 47°15' W 122°26'0 0.0
2015-Apr-18 12:33N 47°15' W 122°26'0 0.0
2015-Apr-18 11:23N 47°15' W 122°26'0 0.0
2015-Apr-18 09:03N 47°15' W 122°26'0 0.0
2015-Apr-18 08:33N 47°15' W 122°26'0 0.0
2015-Apr-18 07:33N 47°15' W 122°26'0 0.0
2015-Apr-18 06:33N 47°15' W 122°26'4 3.6
2015-Apr-18 05:33N 47°19' W 122°28'8 7.5
2015-Apr-18 04:33N 47°26' W 122°24'9 8.6
2015-Apr-18 03:33N 47°34' W 122°26'4 3.7
2015-Apr-18 02:33N 47°35' W 122°21'1 1.3
2015-Apr-18 01:32N 47°36' W 122°21'4 3.9
2015-Apr-18 00:30N 47°34' W 122°26'9 9.9
2015-Apr-17 23:33N 47°25' W 122°22'9 8.8
2015-Apr-17 22:32N 47°16' W 122°27'1 1.1
2015-Apr-17 21:33N 47°15' W 122°26'0 0.0
2015-Apr-17 20:28N 47°15' W 122°26'0 0.0
2015-Apr-17 19:12N 47°15' W 122°26'0 0.0
2015-Apr-17 18:33N 47°15' W 122°26'0 0.0
2015-Apr-17 17:33N 47°15' W 122°26'0 0.0
2015-Apr-17 16:33N 47°15' W 122°26'0 0.0
2015-Apr-17 15:33N 47°15' W 122°26'0 0.0
2015-Apr-17 14:11N 47°15' W 122°26'2 2.4
2015-Apr-17 13:33N 47°17' W 122°25'2 1.8
2015-Apr-17 12:31N 47°16' W 122°23'1 0.6
2015-Apr-17 11:33N 47°16' W 122°24'2 2.1
2015-Apr-17 10:33N 47°17' W 122°26'1 1.3
2015-Apr-17 09:33N 47°17' W 122°24'1 1.3
2015-Apr-17 08:33N 47°16' W 122°23'6 6.0
2015-Apr-17 07:33N 47°22' W 122°25'10 9.5
2015-Apr-17 06:33N 47°31' W 122°26'1211.5
2015-Apr-17 05:33N 47°42' W 122°28'1211.7
2015-Apr-17 04:33N 47°54' W 122°30'19 9.3
2015-Apr-17 02:32N 48°10' W 122°46'9 9.7
2015-Apr-17 01:33N 48°12' W 122°60'1111.0
2015-Apr-17 00:33N 48°10' W 123°16'8 7.5
2015-Apr-16 23:33N 48°08' W 123°27'2 2.1
2015-Apr-16 22:33N 48°08' W 123°24'4 4.4
2015-Apr-16 21:33N 48°10' W 123°18'9 9.3
2015-Apr-16 20:33N 48°13' W 123°04'10 9.7
2015-Apr-16 19:33N 48°12' W 122°50'9 8.4
2015-Apr-16 18:31N 48°07' W 122°39'9 9.9
2015-Apr-16 17:33N 47°58' W 122°34'10 9.6
2015-Apr-16 16:33N 47°50' W 122°27'1010.4
2015-Apr-16 15:33N 47°40' W 122°27'6 5.8
2015-Apr-16 14:33N 47°35' W 122°21'0 0.0
2015-Apr-16 13:33N 47°35' W 122°21'0 0.0
2015-Apr-16 12:33N 47°35' W 122°21'0 0.0
2015-Apr-16 11:33N 47°35' W 122°21'0 0.2
2015-Apr-16 10:33N 47°35' W 122°21'2 1.7
2015-Apr-16 09:33N 47°37' W 122°22'4 3.9
2015-Apr-16 08:33N 47°34' W 122°26'10 9.6
2015-Apr-16 07:32N 47°24' W 122°22'9 8.6
2015-Apr-16 06:31N 47°16' W 122°27'1 1.3
2015-Apr-16 05:33N 47°15' W 122°26'0 0.0
2015-Apr-16 04:33N 47°15' W 122°26'0 0.0
2015-Apr-16 03:33N 47°15' W 122°26'0 0.0
2015-Apr-16 02:33N 47°15' W 122°26'0 0.0
2015-Apr-16 01:33N 47°15' W 122°26'0 0.0
2015-Apr-16 00:33N 47°15' W 122°26'2 1.7
2015-Apr-15 23:33N 47°17' W 122°25'1 1.1
2015-Apr-15 22:33N 47°18' W 122°26'5 5.0
2015-Apr-15 21:34N 47°22' W 122°23'9 9.1
2015-Apr-15 20:33N 47°31' W 122°25'5 5.1
2015-Apr-15 19:33N 47°36' W 122°21'0 0.3
2015-Apr-15 18:33N 47°35' W 122°21'0 0.2
2015-Apr-15 17:33N 47°35' W 122°21'0 0.0
2015-Apr-15 16:33N 47°35' W 122°21'5 5.0
2015-Apr-15 15:33N 47°31' W 122°25'10 9.6
2015-Apr-15 14:33N 47°21' W 122°24'5 4.8
2015-Apr-15 13:33N 47°16' W 122°24'2 1.6
2015-Apr-15 12:33N 47°15' W 122°23'2 2.2
2015-Apr-15 11:33N 47°15' W 122°26'0 0.0
2015-Apr-15 10:33N 47°15' W 122°26'0 0.0
2015-Apr-15 09:33N 47°15' W 122°26'0 0.0
2015-Apr-15 08:33N 47°15' W 122°26'0 0.0
2015-Apr-15 07:33N 47°15' W 122°26'0 0.0
2015-Apr-15 06:33N 47°15' W 122°26'0 0.0
2015-Apr-15 05:33N 47°15' W 122°26'0 0.0
2015-Apr-15 04:33N 47°15' W 122°26'0 0.0
2015-Apr-15 03:33N 47°15' W 122°26'0 0.0
2015-Apr-15 02:33N 47°15' W 122°26'1 1.1
2015-Apr-15 01:33N 47°16' W 122°26'1 0.7
2015-Apr-15 00:33N 47°16' W 122°25'1 0.7
2015-Apr-14 23:33N 47°17' W 122°26'1 0.8
2015-Apr-14 22:33N 47°16' W 122°25'0 0.0
2015-Apr-14 21:33N 47°16' W 122°25'0 0.0
2015-Apr-14 20:33N 47°16' W 122°25'0 0.5
2015-Apr-14 19:33N 47°16' W 122°24'1 1.5
2015-Apr-14 18:33N 47°15' W 122°23'2 2.1
2015-Apr-14 17:33N 47°15' W 122°26'0 0.0
2015-Apr-14 16:33N 47°15' W 122°26'0 0.0
2015-Apr-14 15:33N 47°15' W 122°26'2 1.8
2015-Apr-14 14:33N 47°16' W 122°24'1 0.6
2015-Apr-14 13:33N 47°16' W 122°24'1 1.4
2015-Apr-14 12:33N 47°15' W 122°23'3 3.2
2015-Apr-14 11:33N 47°18' W 122°26'2 2.3
2015-Apr-14 10:33N 47°15' W 122°26'0 0.0
2015-Apr-14 09:33N 47°15' W 122°26'0 0.0
2015-Apr-14 08:33N 47°15' W 122°26'0 0.0
2015-Apr-14 07:33N 47°15' W 122°26'0 0.0
2015-Apr-14 06:33N 47°15' W 122°26'0 0.0
2015-Apr-14 05:33N 47°15' W 122°26'0 0.0
2015-Apr-14 04:33N 47°15' W 122°26'0 0.0
2015-Apr-14 03:33N 47°15' W 122°26'0 0.0
2015-Apr-14 02:33N 47°15' W 122°26'2 2.1
2015-Apr-14 01:33N 47°16' W 122°23'1 0.6
2015-Apr-14 00:33N 47°16' W 122°24'1 0.7
2015-Apr-13 23:33N 47°15' W 122°23'1 0.9
2015-Apr-13 22:33N 47°16' W 122°24'0 0.3
2015-Apr-13 21:33N 47°16' W 122°24'0 0.2
2015-Apr-13 20:33N 47°16' W 122°24'2 1.7
2015-Apr-13 19:33N 47°17' W 122°26'0 0.4
2015-Apr-13 18:32N 47°18' W 122°26'0 0.0
2015-Apr-13 17:30N 47°18' W 122°26'0 0.0
2015-Apr-13 16:32N 47°18' W 122°26'0 0.0
2015-Apr-13 15:24N 47°18' W 122°26'3 3.4
2015-Apr-13 14:33N 47°16' W 122°23'2 1.6
2015-Apr-13 13:33N 47°17' W 122°25'0 0.0
2015-Apr-13 12:33N 47°17' W 122°25'1 1.5
2015-Apr-13 11:33N 47°16' W 122°23'0 0.3
2015-Apr-13 10:33N 47°16' W 122°23'2 1.8
2015-Apr-13 09:33N 47°15' W 122°26'0 0.0
2015-Apr-13 08:31N 47°15' W 122°26'0 0.0
2015-Apr-13 07:29N 47°15' W 122°26'0 0.0
2015-Apr-13 06:32N 47°15' W 122°26'0 0.0
2015-Apr-13 05:33N 47°15' W 122°26'0 0.0
2015-Apr-13 04:16N 47°15' W 122°26'0 0.0
2015-Apr-13 03:33N 47°15' W 122°26'1 1.1
2015-Apr-13 02:33N 47°16' W 122°26'3 2.5
2015-Apr-13 01:31N 47°15' W 122°23'1 0.6
2015-Apr-13 00:28N 47°16' W 122°23'1 0.6
2015-Apr-12 23:33N 47°15' W 122°23'2 1.6
2015-Apr-12 22:33N 47°17' W 122°25'1 1.2
2015-Apr-12 21:33N 47°16' W 122°26'1 1.1
2015-Apr-12 20:33N 47°15' W 122°26'0 0.0
2015-Apr-12 19:33N 47°15' W 122°26'0 0.0
2015-Apr-12 18:33N 47°15' W 122°26'0 0.0
2015-Apr-12 17:33N 47°15' W 122°26'0 0.0
2015-Apr-12 16:33N 47°15' W 122°26'0 0.0
2015-Apr-12 15:31N 47°15' W 122°26'2 2.2
2015-Apr-12 14:33N 47°16' W 122°23'3 2.7
2015-Apr-12 13:33N 47°17' W 122°26'3 2.7
2015-Apr-12 12:33N 47°16' W 122°23'3 2.8
2015-Apr-12 11:33N 47°17' W 122°26'0 0.3
2015-Apr-12 10:30N 47°18' W 122°26'0 0.0
2015-Apr-12 09:32N 47°18' W 122°26'0 0.0
2015-Apr-12 08:33N 47°18' W 122°26'0 0.0
2015-Apr-12 07:30N 47°18' W 122°26'1 1.0
2015-Apr-12 06:33N 47°17' W 122°26'2 1.5
2015-Apr-12 05:33N 47°15' W 122°26'0 0.0
2015-Apr-12 04:33N 47°15' W 122°26'0 0.0
2015-Apr-12 03:33N 47°15' W 122°26'0 0.0
2015-Apr-12 02:33N 47°15' W 122°26'0 0.0
2015-Apr-12 01:26N 47°15' W 122°26'1 1.2
2015-Apr-12 00:33N 47°16' W 122°25'1 1.1
2015-Apr-11 23:33N 47°15' W 122°26'0 0.0
2015-Apr-11 22:33N 47°15' W 122°26'0 0.0
2015-Apr-11 21:33N 47°15' W 122°26'0 0.0
2015-Apr-11 20:33N 47°15' W 122°26'1 1.0
2015-Apr-11 19:33N 47°16' W 122°26'2 2.1
2015-Apr-11 18:33N 47°16' W 122°23'3 3.1
2015-Apr-11 17:33N 47°18' W 122°27'1 0.7
2015-Apr-11 16:32N 47°18' W 122°26'0 0.0
2015-Apr-11 15:33N 47°18' W 122°26'0 0.0
2015-Apr-11 14:32N 47°18' W 122°26'1 1.3
2015-Apr-11 13:33N 47°17' W 122°25'1 1.3
2015-Apr-11 12:32N 47°18' W 122°26'0 0.0
2015-Apr-11 11:33N 47°18' W 122°26'0 0.0
2015-Apr-11 10:33N 47°18' W 122°26'2 1.5
2015-Apr-11 09:33N 47°19' W 122°27'10 9.9
2015-Apr-11 08:33N 47°28' W 122°23'7 7.2
2015-Apr-11 07:33N 47°35' W 122°21'1 1.4
2015-Apr-11 06:33N 47°37' W 122°21'1 1.2
2015-Apr-11 05:33N 47°35' W 122°21'7 6.6
2015-Apr-11 04:33N 47°29' W 122°24'9 8.8
2015-Apr-11 03:33N 47°20' W 122°25'3 3.4
2015-Apr-11 02:33N 47°17' W 122°25'1 0.6
2015-Apr-11 01:33N 47°17' W 122°25'1 1.2
2015-Apr-11 00:33N 47°16' W 122°23'3 2.7
2015-Apr-10 23:33N 47°17' W 122°27'0 0.3
2015-Apr-10 22:33N 47°17' W 122°27'1 0.8
2015-Apr-10 21:33N 47°16' W 122°27'1 0.8
2015-Apr-10 20:33N 47°15' W 122°26'0 0.0
2015-Apr-10 19:33N 47°15' W 122°26'0 0.0
2015-Apr-10 18:33N 47°15' W 122°26'0 0.0
2015-Apr-10 17:33N 47°15' W 122°26'0 0.0
2015-Apr-10 16:33N 47°15' W 122°26'0 0.0
2015-Apr-10 15:33N 47°15' W 122°26'0 0.0
2015-Apr-10 14:33N 47°15' W 122°26'2 2.1
2015-Apr-10 13:33N 47°16' W 122°23'1 0.6
2015-Apr-10 12:33N 47°16' W 122°24'2 2.2
2015-Apr-10 11:33N 47°18' W 122°26'0 0.0
2015-Apr-10 10:33N 47°18' W 122°26'0 0.0
2015-Apr-10 09:33N 47°18' W 122°26'1 1.2
2015-Apr-10 08:33N 47°16' W 122°25'1 1.2
2015-Apr-10 07:33N 47°18' W 122°26'0 0.0
2015-Apr-10 06:31N 47°18' W 122°26'2 2.5
2015-Apr-10 05:33N 47°16' W 122°23'1 1.0
2015-Apr-10 04:33N 47°17' W 122°25'1 1.5
2015-Apr-10 03:33N 47°18' W 122°26'0 0.1
2015-Apr-10 02:33N 47°18' W 122°26'2 2.3
2015-Apr-10 01:33N 47°15' W 122°26'0 0.0
2015-Apr-10 00:33N 47°15' W 122°26'0 0.0
2015-Apr-09 23:28N 47°15' W 122°26'0 0.0
2015-Apr-09 22:33N 47°15' W 122°26'0 0.0
2015-Apr-09 21:33N 47°15' W 122°26'0 0.0
2015-Apr-09 20:33N 47°15' W 122°26'0 0.0
2015-Apr-09 19:33N 47°15' W 122°26'0 0.0
2015-Apr-09 18:33N 47°15' W 122°26'0 0.0
2015-Apr-09 17:33N 47°15' W 122°26'0 0.0
2015-Apr-09 16:33N 47°15' W 122°26'0 0.0
2015-Apr-09 15:33N 47°15' W 122°26'0 0.0
2015-Apr-09 14:33N 47°15' W 122°26'0 0.4
2015-Apr-09 13:33N 47°16' W 122°26'  
Track history (hours):
 
Tides and Currents Weather Stations Pressure Air Temp Water Temp Dewpoint Dewpoint Depression Visibility Wind Speed Wind Dir Waves Ship Positions

Guide

Owner: CROWLEY MARINE SERVICES INC, SEATTLE, WA. More information available from US FCC via Universal Licensing System and Coast Guard Vessel Documentation Center.

Last reported at 2015-Apr-19 13:33 UTC. Time now 2015-Apr-19 14:04 UTC.
Position N 47°36' W 122°21'.

Length 34 m; draft 5.1 m.

Type: Tug. MMSI: 366759530.

Date/timePositionNaut miles runAvg speedWind from/ knotsBaromVisibWave heightAir tempDewpointWater temp
2015-Apr-19 13:33N 47°36' W 122°21'1 1.2
2015-Apr-19 12:33N 47°36' W 122°23'3 2.5
2015-Apr-19 11:33N 47°35' W 122°26'8 8.1
2015-Apr-19 10:33N 47°27' W 122°23'7 7.3
2015-Apr-19 09:33N 47°20' W 122°26'4 4.4
2015-Apr-19 08:33N 47°15' W 122°26'0 0.0
2015-Apr-19 06:33N 47°15' W 122°26'0 0.0
2015-Apr-19 05:33N 47°15' W 122°26'0 0.0
2015-Apr-19 03:32N 47°15' W 122°26'0 0.0
2015-Apr-19 02:33N 47°15' W 122°26'0 0.0
2015-Apr-19 01:33N 47°15' W 122°26'0 0.0
2015-Apr-19 00:33N 47°15' W 122°26'2 1.6
2015-Apr-18 23:33N 47°17' W 122°25'1 0.6
2015-Apr-18 22:33N 47°17' W 122°26'1 0.7
2015-Apr-18 20:31N 47°16' W 122°24'1 0.7
2015-Apr-18 19:33N 47°16' W 122°23'3 2.7
2015-Apr-18 18:33N 47°17' W 122°26'2 2.0
2015-Apr-18 17:31N 47°15' W 122°26'0 0.0
2015-Apr-18 16:33N 47°15' W 122°26'0 0.0
2015-Apr-18 15:33N 47°15' W 122°26'0 0.0
2015-Apr-18 14:33N 47°15' W 122°26'0 0.0
2015-Apr-18 13:30N 47°15' W 122°26'0 0.0
2015-Apr-18 12:33N 47°15' W 122°26'0 0.0
2015-Apr-18 11:23N 47°15' W 122°26'0 0.0
2015-Apr-18 09:03N 47°15' W 122°26'0 0.0
2015-Apr-18 08:33N 47°15' W 122°26'0 0.0
2015-Apr-18 07:33N 47°15' W 122°26'0 0.0
2015-Apr-18 06:33N 47°15' W 122°26'4 3.6
2015-Apr-18 05:33N 47°19' W 122°28'8 7.5
2015-Apr-18 04:33N 47°26' W 122°24'9 8.6
2015-Apr-18 03:33N 47°34' W 122°26'4 3.7
2015-Apr-18 02:33N 47°35' W 122°21'1 1.3
2015-Apr-18 01:32N 47°36' W 122°21'4 3.9
2015-Apr-18 00:30N 47°34' W 122°26'9 9.9
2015-Apr-17 23:33N 47°25' W 122°22'9 8.8
2015-Apr-17 22:32N 47°16' W 122°27'1 1.1
2015-Apr-17 21:33N 47°15' W 122°26'0 0.0
2015-Apr-17 20:28N 47°15' W 122°26'0 0.0
2015-Apr-17 19:12N 47°15' W 122°26'0 0.0
2015-Apr-17 18:33N 47°15' W 122°26'0 0.0
2015-Apr-17 17:33N 47°15' W 122°26'0 0.0
2015-Apr-17 16:33N 47°15' W 122°26'0 0.0
2015-Apr-17 15:33N 47°15' W 122°26'0 0.0
2015-Apr-17 14:11N 47°15' W 122°26'2 2.4
2015-Apr-17 13:33N 47°17' W 122°25'2 1.8
2015-Apr-17 12:31N 47°16' W 122°23'1 0.6
2015-Apr-17 11:33N 47°16' W 122°24'2 2.1
2015-Apr-17 10:33N 47°17' W 122°26'1 1.3
2015-Apr-17 09:33N 47°17' W 122°24'1 1.3
2015-Apr-17 08:33N 47°16' W 122°23'6 6.0
2015-Apr-17 07:33N 47°22' W 122°25'10 9.5
2015-Apr-17 06:33N 47°31' W 122°26'1211.5
2015-Apr-17 05:33N 47°42' W 122°28'1211.7
2015-Apr-17 04:33N 47°54' W 122°30'19 9.3
2015-Apr-17 02:32N 48°10' W 122°46'9 9.7
2015-Apr-17 01:33N 48°12' W 122°60'1111.0
2015-Apr-17 00:33N 48°10' W 123°16'8 7.5
2015-Apr-16 23:33N 48°08' W 123°27'2 2.1
2015-Apr-16 22:33N 48°08' W 123°24'4 4.4
2015-Apr-16 21:33N 48°10' W 123°18'9 9.3
2015-Apr-16 20:33N 48°13' W 123°04'10 9.7
2015-Apr-16 19:33N 48°12' W 122°50'9 8.4
2015-Apr-16 18:31N 48°07' W 122°39'9 9.9
2015-Apr-16 17:33N 47°58' W 122°34'10 9.6
2015-Apr-16 16:33N 47°50' W 122°27'1010.4
2015-Apr-16 15:33N 47°40' W 122°27'6 5.8
2015-Apr-16 14:33N 47°35' W 122°21'0 0.0
2015-Apr-16 13:33N 47°35' W 122°21'0 0.0
2015-Apr-16 12:33N 47°35' W 122°21'0 0.0
2015-Apr-16 11:33N 47°35' W 122°21'0 0.2
2015-Apr-16 10:33N 47°35' W 122°21'2 1.7
2015-Apr-16 09:33N 47°37' W 122°22'4 3.9
2015-Apr-16 08:33N 47°34' W 122°26'10 9.6
2015-Apr-16 07:32N 47°24' W 122°22'9 8.6
2015-Apr-16 06:31N 47°16' W 122°27'1 1.3
2015-Apr-16 05:33N 47°15' W 122°26'0 0.0
2015-Apr-16 04:33N 47°15' W 122°26'0 0.0
2015-Apr-16 03:33N 47°15' W 122°26'0 0.0
2015-Apr-16 02:33N 47°15' W 122°26'0 0.0
2015-Apr-16 01:33N 47°15' W 122°26'0 0.0
2015-Apr-16 00:33N 47°15' W 122°26'2 1.7
2015-Apr-15 23:33N 47°17' W 122°25'1 1.1
2015-Apr-15 22:33N 47°18' W 122°26'5 5.0
2015-Apr-15 21:34N 47°22' W 122°23'9 9.1
2015-Apr-15 20:33N 47°31' W 122°25'5 5.1
2015-Apr-15 19:33N 47°36' W 122°21'0 0.3
2015-Apr-15 18:33N 47°35' W 122°21'0 0.2
2015-Apr-15 17:33N 47°35' W 122°21'0 0.0
2015-Apr-15 16:33N 47°35' W 122°21'5 5.0
2015-Apr-15 15:33N 47°31' W 122°25'10 9.6
2015-Apr-15 14:33N 47°21' W 122°24'5 4.8
2015-Apr-15 13:33N 47°16' W 122°24'2 1.6
2015-Apr-15 12:33N 47°15' W 122°23'2 2.2
2015-Apr-15 11:33N 47°15' W 122°26'0 0.0
2015-Apr-15 10:33N 47°15' W 122°26'0 0.0
2015-Apr-15 09:33N 47°15' W 122°26'0 0.0
2015-Apr-15 08:33N 47°15' W 122°26'0 0.0
2015-Apr-15 07:33N 47°15' W 122°26'0 0.0
2015-Apr-15 06:33N 47°15' W 122°26'0 0.0
2015-Apr-15 05:33N 47°15' W 122°26'0 0.0
2015-Apr-15 04:33N 47°15' W 122°26'0 0.0
2015-Apr-15 03:33N 47°15' W 122°26'0 0.0
2015-Apr-15 02:33N 47°15' W 122°26'1 1.1
2015-Apr-15 01:33N 47°16' W 122°26'1 0.7
2015-Apr-15 00:33N 47°16' W 122°25'1 0.7
2015-Apr-14 23:33N 47°17' W 122°26'1 0.8
2015-Apr-14 22:33N 47°16' W 122°25'0 0.0
2015-Apr-14 21:33N 47°16' W 122°25'0 0.0
2015-Apr-14 20:33N 47°16' W 122°25'0 0.5
2015-Apr-14 19:33N 47°16' W 122°24'1 1.5
2015-Apr-14 18:33N 47°15' W 122°23'2 2.1
2015-Apr-14 17:33N 47°15' W 122°26'0 0.0
2015-Apr-14 16:33N 47°15' W 122°26'0 0.0
2015-Apr-14 15:33N 47°15' W 122°26'2 1.8
2015-Apr-14 14:33N 47°16' W 122°24'1 0.6
2015-Apr-14 13:33N 47°16' W 122°24'1 1.4
2015-Apr-14 12:33N 47°15' W 122°23'3 3.2
2015-Apr-14 11:33N 47°18' W 122°26'2 2.3
2015-Apr-14 10:33N 47°15' W 122°26'0 0.0
2015-Apr-14 09:33N 47°15' W 122°26'0 0.0
2015-Apr-14 08:33N 47°15' W 122°26'0 0.0
2015-Apr-14 07:33N 47°15' W 122°26'0 0.0
2015-Apr-14 06:33N 47°15' W 122°26'0 0.0
2015-Apr-14 05:33N 47°15' W 122°26'0 0.0
2015-Apr-14 04:33N 47°15' W 122°26'0 0.0
2015-Apr-14 03:33N 47°15' W 122°26'0 0.0
2015-Apr-14 02:33N 47°15' W 122°26'2 2.1
2015-Apr-14 01:33N 47°16' W 122°23'1 0.6
2015-Apr-14 00:33N 47°16' W 122°24'1 0.7
2015-Apr-13 23:33N 47°15' W 122°23'1 0.9
2015-Apr-13 22:33N 47°16' W 122°24'0 0.3
2015-Apr-13 21:33N 47°16' W 122°24'0 0.2
2015-Apr-13 20:33N 47°16' W 122°24'2 1.7
2015-Apr-13 19:33N 47°17' W 122°26'0 0.4
2015-Apr-13 18:32N 47°18' W 122°26'0 0.0
2015-Apr-13 17:30N 47°18' W 122°26'0 0.0
2015-Apr-13 16:32N 47°18' W 122°26'0 0.0
2015-Apr-13 15:24N 47°18' W 122°26'3 3.4
2015-Apr-13 14:33N 47°16' W 122°23'2 1.6
2015-Apr-13 13:33N 47°17' W 122°25'0 0.0
2015-Apr-13 12:33N 47°17' W 122°25'1 1.5
2015-Apr-13 11:33N 47°16' W 122°23'0 0.3
2015-Apr-13 10:33N 47°16' W 122°23'2 1.8
2015-Apr-13 09:33N 47°15' W 122°26'0 0.0
2015-Apr-13 08:31N 47°15' W 122°26'0 0.0
2015-Apr-13 07:29N 47°15' W 122°26'0 0.0
2015-Apr-13 06:32N 47°15' W 122°26'0 0.0
2015-Apr-13 05:33N 47°15' W 122°26'0 0.0
2015-Apr-13 04:16N 47°15' W 122°26'0 0.0
2015-Apr-13 03:33N 47°15' W 122°26'1 1.1
2015-Apr-13 02:33N 47°16' W 122°26'3 2.5
2015-Apr-13 01:31N 47°15' W 122°23'1 0.6
2015-Apr-13 00:28N 47°16' W 122°23'1 0.6
2015-Apr-12 23:33N 47°15' W 122°23'2 1.6
2015-Apr-12 22:33N 47°17' W 122°25'1 1.2
2015-Apr-12 21:33N 47°16' W 122°26'1 1.1
2015-Apr-12 20:33N 47°15' W 122°26'0 0.0
2015-Apr-12 19:33N 47°15' W 122°26'0 0.0
2015-Apr-12 18:33N 47°15' W 122°26'0 0.0
2015-Apr-12 17:33N 47°15' W 122°26'0 0.0
2015-Apr-12 16:33N 47°15' W 122°26'0 0.0
2015-Apr-12 15:31N 47°15' W 122°26'2 2.2
2015-Apr-12 14:33N 47°16' W 122°23'3 2.7
2015-Apr-12 13:33N 47°17' W 122°26'3 2.7
2015-Apr-12 12:33N 47°16' W 122°23'3 2.8
2015-Apr-12 11:33N 47°17' W 122°26'0 0.3
2015-Apr-12 10:30N 47°18' W 122°26'0 0.0
2015-Apr-12 09:32N 47°18' W 122°26'0 0.0
2015-Apr-12 08:33N 47°18' W 122°26'0 0.0
2015-Apr-12 07:30N 47°18' W 122°26'1 1.0
2015-Apr-12 06:33N 47°17' W 122°26'2 1.5
2015-Apr-12 05:33N 47°15' W 122°26'0 0.0
2015-Apr-12 04:33N 47°15' W 122°26'0 0.0
2015-Apr-12 03:33N 47°15' W 122°26'0 0.0
2015-Apr-12 02:33N 47°15' W 122°26'0 0.0
2015-Apr-12 01:26N 47°15' W 122°26'1 1.2
2015-Apr-12 00:33N 47°16' W 122°25'1 1.1
2015-Apr-11 23:33N 47°15' W 122°26'0 0.0
2015-Apr-11 22:33N 47°15' W 122°26'0 0.0
2015-Apr-11 21:33N 47°15' W 122°26'0 0.0
2015-Apr-11 20:33N 47°15' W 122°26'1 1.0
2015-Apr-11 19:33N 47°16' W 122°26'2 2.1
2015-Apr-11 18:33N 47°16' W 122°23'3 3.1
2015-Apr-11 17:33N 47°18' W 122°27'1 0.7
2015-Apr-11 16:32N 47°18' W 122°26'0 0.0
2015-Apr-11 15:33N 47°18' W 122°26'0 0.0
2015-Apr-11 14:32N 47°18' W 122°26'1 1.3
2015-Apr-11 13:33N 47°17' W 122°25'1 1.3
2015-Apr-11 12:32N 47°18' W 122°26'0 0.0
2015-Apr-11 11:33N 47°18' W 122°26'0 0.0
2015-Apr-11 10:33N 47°18' W 122°26'2 1.5
2015-Apr-11 09:33N 47°19' W 122°27'10 9.9
2015-Apr-11 08:33N 47°28' W 122°23'7 7.2
2015-Apr-11 07:33N 47°35' W 122°21'1 1.4
2015-Apr-11 06:33N 47°37' W 122°21'1 1.2
2015-Apr-11 05:33N 47°35' W 122°21'7 6.6
2015-Apr-11 04:33N 47°29' W 122°24'9 8.8
2015-Apr-11 03:33N 47°20' W 122°25'3 3.4
2015-Apr-11 02:33N 47°17' W 122°25'1 0.6
2015-Apr-11 01:33N 47°17' W 122°25'1 1.2
2015-Apr-11 00:33N 47°16' W 122°23'3 2.7
2015-Apr-10 23:33N 47°17' W 122°27'0 0.3
2015-Apr-10 22:33N 47°17' W 122°27'1 0.8
2015-Apr-10 21:33N 47°16' W 122°27'1 0.8
2015-Apr-10 20:33N 47°15' W 122°26'0 0.0
2015-Apr-10 19:33N 47°15' W 122°26'0 0.0
2015-Apr-10 18:33N 47°15' W 122°26'0 0.0
2015-Apr-10 17:33N 47°15' W 122°26'0 0.0
2015-Apr-10 16:33N 47°15' W 122°26'0 0.0
2015-Apr-10 15:33N 47°15' W 122°26'0 0.0
2015-Apr-10 14:33N 47°15' W 122°26'2 2.1
2015-Apr-10 13:33N 47°16' W 122°23'1 0.6
2015-Apr-10 12:33N 47°16' W 122°24'2 2.2
2015-Apr-10 11:33N 47°18' W 122°26'0 0.0
2015-Apr-10 10:33N 47°18' W 122°26'0 0.0
2015-Apr-10 09:33N 47°18' W 122°26'1 1.2
2015-Apr-10 08:33N 47°16' W 122°25'1 1.2
2015-Apr-10 07:33N 47°18' W 122°26'0 0.0
2015-Apr-10 06:31N 47°18' W 122°26'2 2.5
2015-Apr-10 05:33N 47°16' W 122°23'1 1.0
2015-Apr-10 04:33N 47°17' W 122°25'1 1.5
2015-Apr-10 03:33N 47°18' W 122°26'0 0.1
2015-Apr-10 02:33N 47°18' W 122°26'2 2.3
2015-Apr-10 01:33N 47°15' W 122°26'0 0.0
2015-Apr-10 00:33N 47°15' W 122°26'0 0.0
2015-Apr-09 23:28N 47°15' W 122°26'0 0.0
2015-Apr-09 22:33N 47°15' W 122°26'0 0.0
2015-Apr-09 21:33N 47°15' W 122°26'0 0.0
2015-Apr-09 20:33N 47°15' W 122°26'0 0.0
2015-Apr-09 19:33N 47°15' W 122°26'0 0.0
2015-Apr-09 18:33N 47°15' W 122°26'0 0.0
2015-Apr-09 17:33N 47°15' W 122°26'0 0.0
2015-Apr-09 16:33N 47°15' W 122°26'0 0.0
2015-Apr-09 15:33N 47°15' W 122°26'0 0.0
2015-Apr-09 14:33N 47°15' W 122°26'0 0.4
2015-Apr-09 13:33N 47°16' W 122°26'  

Dump ship's entire track history